sensor_id;sensor_type;location;lat;lon;timestamp;pressure;altitude;pressure_sealevel;temperature;humidity
49122;BME280;35529;44.342;25.944;2022-11-18T00:00:11;99575.44;;;6.53;100.00
49122;BME280;35529;44.342;25.944;2022-11-18T00:02:38;99580.91;;;6.51;100.00
49122;BME280;35529;44.342;25.944;2022-11-18T00:05:07;99572.56;;;6.48;100.00
49122;BME280;35529;44.342;25.944;2022-11-18T00:07:33;99571.75;;;6.47;100.00
49122;BME280;35529;44.342;25.944;2022-11-18T00:09:59;99565.03;;;6.45;100.00
49122;BME280;35529;44.342;25.944;2022-11-18T00:12:25;99573.75;;;6.45;100.00
49122;BME280;35529;44.342;25.944;2022-11-18T00:15:10;99571.31;;;6.44;100.00
49122;BME280;35529;44.342;25.944;2022-11-18T00:17:36;99578.59;;;6.42;100.00
49122;BME280;35529;44.342;25.944;2022-11-18T00:20:02;99584.25;;;6.38;100.00
49122;BME280;35529;44.342;25.944;2022-11-18T00:22:28;99589.09;;;6.35;100.00
49122;BME280;35529;44.342;25.944;2022-11-18T00:24:54;99585.03;;;6.32;100.00
49122;BME280;35529;44.342;25.944;2022-11-18T00:27:20;99593.28;;;6.29;100.00
49122;BME280;35529;44.342;25.944;2022-11-18T00:29:46;99588.03;;;6.29;100.00
49122;BME280;35529;44.342;25.944;2022-11-18T00:32:15;99592.94;;;6.32;100.00
49122;BME280;35529;44.342;25.944;2022-11-18T00:34:41;99590.72;;;6.36;100.00
49122;BME280;35529;44.342;25.944;2022-11-18T00:37:08;99605.34;;;6.38;100.00
49122;BME280;35529;44.342;25.944;2022-11-18T00:39:36;99590.72;;;6.36;100.00
49122;BME280;35529;44.342;25.944;2022-11-18T00:42:03;99601.25;;;6.36;100.00
49122;BME280;35529;44.342;25.944;2022-11-18T00:44:47;99603.91;;;6.36;100.00
49122;BME280;35529;44.342;25.944;2022-11-18T00:47:13;99600.41;;;6.29;100.00
49122;BME280;35529;44.342;25.944;2022-11-18T00:49:39;99601.97;;;6.23;100.00
49122;BME280;35529;44.342;25.944;2022-11-18T00:52:05;99599.69;;;6.20;100.00
49122;BME280;35529;44.342;25.944;2022-11-18T00:54:31;99592.81;;;6.19;100.00
49122;BME280;35529;44.342;25.944;2022-11-18T00:57:00;99596.25;;;6.19;100.00
49122;BME280;35529;44.342;25.944;2022-11-18T00:59:28;99602.72;;;6.17;100.00
49122;BME280;35529;44.342;25.944;2022-11-18T01:01:54;99595.56;;;6.11;100.00
49122;BME280;35529;44.342;25.944;2022-11-18T01:04:23;99586.78;;;6.03;100.00
49122;BME280;35529;44.342;25.944;2022-11-18T01:06:49;99594.44;;;5.98;100.00
49122;BME280;35529;44.342;25.944;2022-11-18T01:09:17;99596.28;;;5.98;100.00
49122;BME280;35529;44.342;25.944;2022-11-18T01:11:43;99590.13;;;5.97;100.00
49122;BME280;35529;44.342;25.944;2022-11-18T01:14:28;99595.59;;;5.96;100.00
49122;BME280;35529;44.342;25.944;2022-11-18T01:16:54;99601.06;;;5.94;100.00
49122;BME280;35529;44.342;25.944;2022-11-18T01:19:21;99598.63;;;5.93;100.00
49122;BME280;35529;44.342;25.944;2022-11-18T01:21:48;99597.81;;;5.92;100.00
49122;BME280;35529;44.342;25.944;2022-11-18T01:24:15;99593.94;;;5.88;100.00
49122;BME280;35529;44.342;25.944;2022-11-18T01:26:41;99597.09;;;5.83;100.00
49122;BME280;35529;44.342;25.944;2022-11-18T01:29:07;99598.28;;;5.81;100.00
49122;BME280;35529;44.342;25.944;2022-11-18T01:31:36;99590.50;;;5.73;100.00
49122;BME280;35529;44.342;25.944;2022-11-18T01:34:02;99582.28;;;5.61;100.00
49122;BME280;35529;44.342;25.944;2022-11-18T01:36:28;99580.03;;;5.58;100.00
49122;BME280;35529;44.342;25.944;2022-11-18T01:38:54;99578.19;;;5.58;100.00
49122;BME280;35529;44.342;25.944;2022-11-18T01:41:21;99585.47;;;5.56;100.00
49122;BME280;35529;44.342;25.944;2022-11-18T01:43:55;99577.94;;;5.53;100.00
49122;BME280;35529;44.342;25.944;2022-11-18T01:46:22;99571.22;;;5.50;100.00
49122;BME280;35529;44.342;25.944;2022-11-18T01:49:08;99570.78;;;5.47;100.00
49122;BME280;35529;44.342;25.944;2022-11-18T01:51:47;99569.16;;;5.46;100.00
49122;BME280;35529;44.342;25.944;2022-11-18T01:54:22;99576.88;;;5.47;100.00
49122;BME280;35529;44.342;25.944;2022-11-18T01:56:51;99576.41;;;5.44;100.00
49122;BME280;35529;44.342;25.944;2022-11-18T01:59:20;99566.53;;;5.46;100.00
49122;BME280;35529;44.342;25.944;2022-11-18T02:01:47;99573.25;;;5.48;100.00
49122;BME280;35529;44.342;25.944;2022-11-18T02:04:14;99580.69;;;5.45;100.00
49122;BME280;35529;44.342;25.944;2022-11-18T02:06:41;99581.25;;;5.40;100.00
49122;BME280;35529;44.342;25.944;2022-11-18T02:09:07;99582.97;;;5.33;100.00
49122;BME280;35529;44.342;25.944;2022-11-18T02:11:33;99586.16;;;5.28;100.00
49122;BME280;35529;44.342;25.944;2022-11-18T02:14:19;99580.44;;;5.25;100.00
49122;BME280;35529;44.342;25.944;2022-11-18T02:25:10;99587.88;;;5.21;100.00
49122;BME280;35529;44.342;25.944;2022-11-18T02:30:29;99586.19;;;4.98;100.00
49122;BME280;35529;44.342;25.944;2022-11-18T02:33:03;99597.34;;;4.85;100.00
49122;BME280;35529;44.342;25.944;2022-11-18T02:38:04;99602.69;;;4.62;100.00
49122;BME280;35529;44.342;25.944;2022-11-18T02:40:51;99596.66;;;4.53;100.00
49122;BME280;35529;44.342;25.944;2022-11-18T02:43:28;99600.53;;;4.43;100.00
49122;BME280;35529;44.342;25.944;2022-11-18T02:45:57;99607.44;;;4.20;100.00
49122;BME280;35529;44.342;25.944;2022-11-18T02:48:25;99610.16;;;4.12;100.00
49122;BME280;35529;44.342;25.944;2022-11-18T02:50:59;99606.59;;;4.05;100.00
49122;BME280;35529;44.342;25.944;2022-11-18T02:53:29;99607.47;;;3.97;100.00
49122;BME280;35529;44.342;25.944;2022-11-18T02:55:59;99622.97;;;3.84;100.00
49122;BME280;35529;44.342;25.944;2022-11-18T02:58:26;99620.06;;;3.79;100.00
49122;BME280;35529;44.342;25.944;2022-11-18T03:00:53;99613.81;;;3.80;100.00
49122;BME280;35529;44.342;25.944;2022-11-18T03:08:21;99620.75;;;3.73;100.00
49122;BME280;35529;44.342;25.944;2022-11-18T03:10:54;99613.19;;;3.78;100.00
49122;BME280;35529;44.342;25.944;2022-11-18T03:13:29;99616.09;;;3.83;100.00
49122;BME280;35529;44.342;25.944;2022-11-18T03:16:04;99612.59;;;3.91;100.00
49122;BME280;35529;44.342;25.944;2022-11-18T03:18:34;99614.47;;;4.05;100.00
49122;BME280;35529;44.342;25.944;2022-11-18T03:21:06;99603.72;;;4.15;100.00
49122;BME280;35529;44.342;25.944;2022-11-18T03:23:35;99615.19;;;4.22;100.00
49122;BME280;35529;44.342;25.944;2022-11-18T03:26:08;99607.22;;;4.30;100.00
49122;BME280;35529;44.342;25.944;2022-11-18T03:28:39;99609.97;;;4.37;100.00
49122;BME280;35529;44.342;25.944;2022-11-18T03:33:34;99598.81;;;4.50;100.00
49122;BME280;35529;44.342;25.944;2022-11-18T03:36:04;99598.78;;;4.58;100.00
49122;BME280;35529;44.342;25.944;2022-11-18T03:38:33;99590.44;;;4.69;100.00
49122;BME280;35529;44.342;25.944;2022-11-18T03:41:00;99589.00;;;4.82;100.00
49122;BME280;35529;44.342;25.944;2022-11-18T03:43:30;99581.56;;;5.00;100.00
49122;BME280;35529;44.342;25.944;2022-11-18T03:46:00;99589.72;;;5.06;100.00
49122;BME280;35529;44.342;25.944;2022-11-18T03:48:28;99582.91;;;5.11;100.00
49122;BME280;35529;44.342;25.944;2022-11-18T03:50:57;99580.00;;;5.21;100.00
49122;BME280;35529;44.342;25.944;2022-11-18T03:53:25;99586.34;;;5.27;100.00
49122;BME280;35529;44.342;25.944;2022-11-18T03:55:54;99590.88;;;5.33;100.00
49122;BME280;35529;44.342;25.944;2022-11-18T03:58:28;99590.59;;;5.43;100.00
49122;BME280;35529;44.342;25.944;2022-11-18T04:00:56;99590.22;;;5.46;100.00
49122;BME280;35529;44.342;25.944;2022-11-18T04:03:24;99601.28;;;5.56;100.00
49122;BME280;35529;44.342;25.944;2022-11-18T04:05:56;99600.53;;;5.62;100.00
49122;BME280;35529;44.342;25.944;2022-11-18T04:08:26;99615.78;;;5.67;100.00
49122;BME280;35529;44.342;25.944;2022-11-18T04:11:03;99615.13;;;5.65;100.00
49122;BME280;35529;44.342;25.944;2022-11-18T04:13:33;99607.03;;;5.66;100.00
49122;BME280;35529;44.342;25.944;2022-11-18T04:16:00;99625.75;;;5.71;100.00
49122;BME280;35529;44.342;25.944;2022-11-18T04:18:26;99628.84;;;5.75;100.00
49122;BME280;35529;44.342;25.944;2022-11-18T04:20:52;99618.50;;;5.74;100.00
49122;BME280;35529;44.342;25.944;2022-11-18T04:23:18;99622.50;;;5.69;100.00
49122;BME280;35529;44.342;25.944;2022-11-18T04:25:44;99617.44;;;5.68;100.00
49122;BME280;35529;44.342;25.944;2022-11-18T04:28:10;99620.47;;;5.71;100.00
49122;BME280;35529;44.342;25.944;2022-11-18T04:30:36;99628.25;;;5.80;100.00
49122;BME280;35529;44.342;25.944;2022-11-18T04:33:02;99623.53;;;5.90;100.00
49122;BME280;35529;44.342;25.944;2022-11-18T04:35:29;99634.69;;;5.92;100.00
49122;BME280;35529;44.342;25.944;2022-11-18T04:37:55;99648.97;;;5.98;100.00
49122;BME280;35529;44.342;25.944;2022-11-18T04:40:22;99648.28;;;5.96;100.00
49122;BME280;35529;44.342;25.944;2022-11-18T04:42:48;99659.16;;;5.86;100.00
49122;BME280;35529;44.342;25.944;2022-11-18T04:45:14;99669.31;;;5.89;100.00
49122;BME280;35529;44.342;25.944;2022-11-18T04:47:40;99671.94;;;5.89;100.00
49122;BME280;35529;44.342;25.944;2022-11-18T04:50:06;99662.78;;;5.85;100.00
49122;BME280;35529;44.342;25.944;2022-11-18T04:52:32;99664.78;;;5.83;100.00
49122;BME280;35529;44.342;25.944;2022-11-18T04:54:58;99661.06;;;5.92;100.00
49122;BME280;35529;44.342;25.944;2022-11-18T04:57:24;99659.59;;;6.04;100.00
49122;BME280;35529;44.342;25.944;2022-11-18T04:59:50;99668.81;;;6.15;100.00
49122;BME280;35529;44.342;25.944;2022-11-18T05:02:16;99671.44;;;6.15;100.00
49122;BME280;35529;44.342;25.944;2022-11-18T05:04:43;99678.97;;;6.18;100.00
49122;BME280;35529;44.342;25.944;2022-11-18T05:07:12;99681.19;;;6.15;100.00
49122;BME280;35529;44.342;25.944;2022-11-18T05:09:38;99669.19;;;6.12;100.00
49122;BME280;35529;44.342;25.944;2022-11-18T05:12:04;99677.66;;;6.08;100.00
49122;BME280;35529;44.342;25.944;2022-11-18T05:14:48;99673.25;;;5.78;100.00
49122;BME280;35529;44.342;25.944;2022-11-18T05:17:14;99660.81;;;5.57;100.00
49122;BME280;35529;44.342;25.944;2022-11-18T05:19:40;99663.00;;;5.68;100.00
49122;BME280;35529;44.342;25.944;2022-11-18T05:22:06;99650.78;;;5.82;100.00
49122;BME280;35529;44.342;25.944;2022-11-18T05:24:33;99664.09;;;5.96;100.00
49122;BME280;35529;44.342;25.944;2022-11-18T05:26:59;99663.41;;;6.02;100.00
49122;BME280;35529;44.342;25.944;2022-11-18T05:29:25;99653.22;;;5.84;100.00
49122;BME280;35529;44.342;25.944;2022-11-18T05:31:51;99647.50;;;5.59;100.00
49122;BME280;35529;44.342;25.944;2022-11-18T05:34:17;99654.91;;;5.70;100.00
49122;BME280;35529;44.342;25.944;2022-11-18T05:36:44;99654.75;;;5.57;100.00
49122;BME280;35529;44.342;25.944;2022-11-18T05:39:10;99659.84;;;5.58;100.00
49122;BME280;35529;44.342;25.944;2022-11-18T05:41:36;99665.66;;;5.53;100.00
49122;BME280;35529;44.342;25.944;2022-11-18T05:44:21;99676.44;;;5.74;100.00
49122;BME280;35529;44.342;25.944;2022-11-18T05:46:47;99667.31;;;5.91;100.00
49122;BME280;35529;44.342;25.944;2022-11-18T05:49:13;99672.75;;;6.04;100.00
49122;BME280;35529;44.342;25.944;2022-11-18T05:51:39;99671.72;;;6.20;100.00
49122;BME280;35529;44.342;25.944;2022-11-18T05:54:08;99668.38;;;6.12;100.00
49122;BME280;35529;44.342;25.944;2022-11-18T05:56:38;99682.00;;;6.15;100.00
49122;BME280;35529;44.342;25.944;2022-11-18T05:59:05;99668.31;;;5.90;100.00
49122;BME280;35529;44.342;25.944;2022-11-18T06:06:49;99682.88;;;6.23;100.00
49122;BME280;35529;44.342;25.944;2022-11-18T06:09:17;99672.91;;;6.18;100.00
49122;BME280;35529;44.342;25.944;2022-11-18T06:11:45;99667.44;;;6.19;100.00
49122;BME280;35529;44.342;25.944;2022-11-18T06:14:14;99677.41;;;6.24;100.00
49122;BME280;35529;44.342;25.944;2022-11-18T06:16:43;99680.94;;;6.31;100.00
49122;BME280;35529;44.342;25.944;2022-11-18T06:19:11;99679.09;;;6.32;100.00
49122;BME280;35529;44.342;25.944;2022-11-18T06:21:37;99686.06;;;6.40;100.00
49122;BME280;35529;44.342;25.944;2022-11-18T06:24:03;99690.72;;;6.59;100.00
49122;BME280;35529;44.342;25.944;2022-11-18T06:26:30;99700.06;;;6.83;100.00
49122;BME280;35529;44.342;25.944;2022-11-18T06:28:56;99699.41;;;7.10;100.00
49122;BME280;35529;44.342;25.944;2022-11-18T06:31:22;99691.97;;;7.20;100.00
49122;BME280;35529;44.342;25.944;2022-11-18T06:33:48;99696.09;;;7.29;100.00
49122;BME280;35529;44.342;25.944;2022-11-18T06:36:14;99686.38;;;7.36;100.00
49122;BME280;35529;44.342;25.944;2022-11-18T06:38:40;99687.63;;;7.41;100.00
49122;BME280;35529;44.342;25.944;2022-11-18T06:41:06;99684.66;;;7.57;100.00
49122;BME280;35529;44.342;25.944;2022-11-18T06:43:32;99682.13;;;7.77;100.00
49122;BME280;35529;44.342;25.944;2022-11-18T06:46:11;99691.53;;;8.00;100.00
49122;BME280;35529;44.342;25.944;2022-11-18T06:48:56;99686.88;;;8.09;100.00
49122;BME280;35529;44.342;25.944;2022-11-18T06:51:22;99676.53;;;8.27;100.00
49122;BME280;35529;44.342;25.944;2022-11-18T06:53:49;99673.72;;;8.42;100.00
49122;BME280;35529;44.342;25.944;2022-11-18T06:56:15;99673.38;;;8.52;100.00
49122;BME280;35529;44.342;25.944;2022-11-18T06:58:42;99683.97;;;8.65;100.00
49122;BME280;35529;44.342;25.944;2022-11-18T07:01:13;99681.09;;;8.67;100.00
49122;BME280;35529;44.342;25.944;2022-11-18T07:03:40;99681.69;;;8.82;100.00
49122;BME280;35529;44.342;25.944;2022-11-18T07:06:06;99680.03;;;8.95;100.00
49122;BME280;35529;44.342;25.944;2022-11-18T07:08:33;99690.63;;;9.08;100.00
49122;BME280;35529;44.342;25.944;2022-11-18T07:11:00;99682.66;;;9.15;100.00
49122;BME280;35529;44.342;25.944;2022-11-18T07:13:26;99682.06;;;9.13;100.00
49122;BME280;35529;44.342;25.944;2022-11-18T07:15:52;99677.34;;;9.21;100.00
49122;BME280;35529;44.342;25.944;2022-11-18T07:18:18;99681.44;;;9.24;100.00
49122;BME280;35529;44.342;25.944;2022-11-18T07:20:44;99670.50;;;8.80;100.00
49122;BME280;35529;44.342;25.944;2022-11-18T07:23:10;99668.63;;;9.08;100.00
49122;BME280;35529;44.342;25.944;2022-11-18T07:25:36;99665.97;;;9.21;100.00
49122;BME280;35529;44.342;25.944;2022-11-18T07:28:02;99665.19;;;9.14;100.00
49122;BME280;35529;44.342;25.944;2022-11-18T07:30:28;99659.88;;;9.14;100.00
49122;BME280;35529;44.342;25.944;2022-11-18T07:32:54;99658.00;;;9.28;100.00
49122;BME280;35529;44.342;25.944;2022-11-18T07:35:20;99653.50;;;9.28;100.00
49122;BME280;35529;44.342;25.944;2022-11-18T07:37:46;99651.84;;;9.41;100.00
49122;BME280;35529;44.342;25.944;2022-11-18T07:40:13;99641.22;;;9.54;100.00
49122;BME280;35529;44.342;25.944;2022-11-18T07:42:39;99636.53;;;9.49;100.00
49122;BME280;35529;44.342;25.944;2022-11-18T07:45:10;99632.25;;;9.48;100.00
49122;BME280;35529;44.342;25.944;2022-11-18T07:47:36;99629.34;;;9.63;100.00
49122;BME280;35529;44.342;25.944;2022-11-18T07:50:03;99633.78;;;9.69;100.00
49122;BME280;35529;44.342;25.944;2022-11-18T07:52:29;99634.03;;;9.61;100.00
49122;BME280;35529;44.342;25.944;2022-11-18T07:54:55;99613.13;;;9.39;100.00
49122;BME280;35529;44.342;25.944;2022-11-18T07:57:21;99622.22;;;9.57;100.00
49122;BME280;35529;44.342;25.944;2022-11-18T07:59:48;99607.25;;;9.76;100.00
49122;BME280;35529;44.342;25.944;2022-11-18T08:02:14;99613.13;;;9.85;100.00
49122;BME280;35529;44.342;25.944;2022-11-18T08:04:40;99613.88;;;9.92;100.00
49122;BME280;35529;44.342;25.944;2022-11-18T08:07:08;99617.91;;;10.01;100.00
49122;BME280;35529;44.342;25.944;2022-11-18T08:09:34;99621.50;;;10.14;100.00
49122;BME280;35529;44.342;25.944;2022-11-18T08:12:00;99629.13;;;10.29;100.00
49122;BME280;35529;44.342;25.944;2022-11-18T08:14:26;99635.22;;;10.43;100.00
49122;BME280;35529;44.342;25.944;2022-11-18T08:16:53;99632.66;;;10.54;100.00
49122;BME280;35529;44.342;25.944;2022-11-18T08:19:20;99636.22;;;10.67;100.00
49122;BME280;35529;44.342;25.944;2022-11-18T08:21:46;99638.22;;;10.71;100.00
49122;BME280;35529;44.342;25.944;2022-11-18T08:24:12;99628.38;;;10.79;100.00
49122;BME280;35529;44.342;25.944;2022-11-18T08:26:38;99629.09;;;10.86;100.00
49122;BME280;35529;44.342;25.944;2022-11-18T08:29:04;99632.88;;;10.97;100.00
49122;BME280;35529;44.342;25.944;2022-11-18T08:31:30;99636.81;;;11.13;100.00
49122;BME280;35529;44.342;25.944;2022-11-18T08:33:57;99633.44;;;11.24;100.00
49122;BME280;35529;44.342;25.944;2022-11-18T08:36:25;99639.16;;;11.39;100.00
49122;BME280;35529;44.342;25.944;2022-11-18T08:38:53;99649.31;;;11.49;100.00
49122;BME280;35529;44.342;25.944;2022-11-18T08:41:41;99654.31;;;11.57;100.00
49122;BME280;35529;44.342;25.944;2022-11-18T08:44:06;99658.94;;;11.62;100.00
49122;BME280;35529;44.342;25.944;2022-11-18T08:46:32;99661.16;;;11.65;100.00
49122;BME280;35529;44.342;25.944;2022-11-18T08:48:58;99666.38;;;11.72;100.00
49122;BME280;35529;44.342;25.944;2022-11-18T08:51:25;99657.53;;;11.78;100.00
49122;BME280;35529;44.342;25.944;2022-11-18T08:53:51;99666.91;;;11.81;100.00
49122;BME280;35529;44.342;25.944;2022-11-18T08:56:17;99662.84;;;11.78;100.00
49122;BME280;35529;44.342;25.944;2022-11-18T08:58:44;99648.06;;;11.82;100.00
49122;BME280;35529;44.342;25.944;2022-11-18T09:01:11;99648.19;;;11.87;100.00
49122;BME280;35529;44.342;25.944;2022-11-18T09:03:37;99638.91;;;11.97;100.00
49122;BME280;35529;44.342;25.944;2022-11-18T09:06:04;99634.75;;;12.01;100.00
49122;BME280;35529;44.342;25.944;2022-11-18T09:08:32;99642.56;;;12.26;100.00
49122;BME280;35529;44.342;25.944;2022-11-18T09:10:58;99633.91;;;12.43;100.00
49122;BME280;35529;44.342;25.944;2022-11-18T09:13:24;99625.94;;;12.66;100.00
49122;BME280;35529;44.342;25.944;2022-11-18T09:15:50;99632.09;;;12.90;100.00
49122;BME280;35529;44.342;25.944;2022-11-18T09:18:16;99626.94;;;13.13;100.00
49122;BME280;35529;44.342;25.944;2022-11-18T09:20:51;99629.59;;;13.24;100.00
49122;BME280;35529;44.342;25.944;2022-11-18T09:23:18;99611.88;;;13.30;100.00
49122;BME280;35529;44.342;25.944;2022-11-18T09:25:44;99605.72;;;13.41;100.00
49122;BME280;35529;44.342;25.944;2022-11-18T09:28:10;99599.91;;;13.45;100.00
49122;BME280;35529;44.342;25.944;2022-11-18T09:30:36;99597.03;;;13.46;100.00
49122;BME280;35529;44.342;25.944;2022-11-18T09:33:04;99607.97;;;13.62;100.00
49122;BME280;35529;44.342;25.944;2022-11-18T09:35:32;99596.22;;;13.74;100.00
49122;BME280;35529;44.342;25.944;2022-11-18T09:37:58;99577.94;;;13.83;100.00
49122;BME280;35529;44.342;25.944;2022-11-18T09:40:24;99566.81;;;13.86;100.00
49122;BME280;35529;44.342;25.944;2022-11-18T09:43:12;99560.56;;;13.81;100.00
49122;BME280;35529;44.342;25.944;2022-11-18T09:45:42;99544.63;;;13.86;100.00
49122;BME280;35529;44.342;25.944;2022-11-18T09:48:14;99536.22;;;13.77;100.00
49122;BME280;35529;44.342;25.944;2022-11-18T09:50:42;99534.31;;;13.61;100.00
49122;BME280;35529;44.342;25.944;2022-11-18T09:53:18;99533.34;;;13.50;100.00
49122;BME280;35529;44.342;25.944;2022-11-18T09:55:44;99524.44;;;13.44;100.00
49122;BME280;35529;44.342;25.944;2022-11-18T09:58:16;99523.84;;;13.42;100.00
49122;BME280;35529;44.342;25.944;2022-11-18T10:00:43;99529.03;;;13.49;100.00
49122;BME280;35529;44.342;25.944;2022-11-18T10:03:14;99528.84;;;13.50;100.00
49122;BME280;35529;44.342;25.944;2022-11-18T10:10:51;99499.34;;;13.57;100.00
49122;BME280;35529;44.342;25.944;2022-11-18T10:16:05;99498.03;;;13.43;100.00
49122;BME280;35529;44.342;25.944;2022-11-18T10:19:10;99491.97;;;13.35;100.00
49122;BME280;35529;44.342;25.944;2022-11-18T10:23:54;99482.44;;;13.22;100.00
49122;BME280;35529;44.342;25.944;2022-11-18T10:26:34;99484.38;;;13.27;100.00
49122;BME280;35529;44.342;25.944;2022-11-18T10:29:01;99475.44;;;13.33;100.00
49122;BME280;35529;44.342;25.944;2022-11-18T10:31:27;99476.69;;;13.43;100.00
49122;BME280;35529;44.342;25.944;2022-11-18T10:33:59;99470.31;;;13.44;100.00
49122;BME280;35529;44.342;25.944;2022-11-18T10:36:27;99464.50;;;13.47;100.00
49122;BME280;35529;44.342;25.944;2022-11-18T10:39:06;99469.75;;;13.58;100.00
49122;BME280;35529;44.342;25.944;2022-11-18T10:41:37;99465.06;;;13.66;100.00
49122;BME280;35529;44.342;25.944;2022-11-18T10:44:04;99455.78;;;13.68;100.00
49122;BME280;35529;44.342;25.944;2022-11-18T10:46:33;99449.41;;;13.69;100.00
49122;BME280;35529;44.342;25.944;2022-11-18T10:51:41;99445.19;;;13.90;100.00
49122;BME280;35529;44.342;25.944;2022-11-18T10:54:08;99439.28;;;14.05;100.00
49122;BME280;35529;44.342;25.944;2022-11-18T10:56:55;99442.16;;;14.21;100.00
49122;BME280;35529;44.342;25.944;2022-11-18T10:59:27;99433.66;;;14.24;100.00
49122;BME280;35529;44.342;25.944;2022-11-18T11:04:24;99443.31;;;14.47;100.00
49122;BME280;35529;44.342;25.944;2022-11-18T11:06:52;99437.19;;;14.52;100.00
49122;BME280;35529;44.342;25.944;2022-11-18T11:11:59;99457.38;;;14.82;100.00
49122;BME280;35529;44.342;25.944;2022-11-18T11:19:22;99441.03;;;15.00;100.00
49122;BME280;35529;44.342;25.944;2022-11-18T11:21:50;99433.53;;;15.02;100.00
49122;BME280;35529;44.342;25.944;2022-11-18T11:24:16;99433.09;;;15.11;100.00
49122;BME280;35529;44.342;25.944;2022-11-18T11:26:45;99435.81;;;15.16;100.00
49122;BME280;35529;44.342;25.944;2022-11-18T11:35:14;99408.47;;;15.08;100.00
49122;BME280;35529;44.342;25.944;2022-11-18T11:38:00;99418.06;;;15.04;100.00
49122;BME280;35529;44.342;25.944;2022-11-18T11:40:40;99427.47;;;14.85;100.00
49122;BME280;35529;44.342;25.944;2022-11-18T11:50:42;99414.72;;;14.92;100.00
49122;BME280;35529;44.342;25.944;2022-11-18T12:01:09;99392.38;;;14.76;100.00
49122;BME280;35529;44.342;25.944;2022-11-18T12:03:44;99397.72;;;14.76;100.00
49122;BME280;35529;44.342;25.944;2022-11-18T12:06:11;99405.50;;;14.78;100.00
49122;BME280;35529;44.342;25.944;2022-11-18T12:08:39;99409.28;;;14.82;100.00
49122;BME280;35529;44.342;25.944;2022-11-18T12:11:12;99393.78;;;14.84;100.00
49122;BME280;35529;44.342;25.944;2022-11-18T12:19:11;99403.09;;;14.81;100.00
49122;BME280;35529;44.342;25.944;2022-11-18T12:26:56;99386.28;;;14.81;100.00
49122;BME280;35529;44.342;25.944;2022-11-18T12:29:24;99383.41;;;14.87;100.00
49122;BME280;35529;44.342;25.944;2022-11-18T12:31:52;99378.91;;;14.93;100.00
49122;BME280;35529;44.342;25.944;2022-11-18T12:34:54;99369.13;;;15.04;100.00
49122;BME280;35529;44.342;25.944;2022-11-18T12:48:02;99368.91;;;15.11;100.00
49122;BME280;35529;44.342;25.944;2022-11-18T12:50:47;99359.38;;;15.20;100.00
49122;BME280;35529;44.342;25.944;2022-11-18T12:53:27;99348.47;;;15.27;100.00
49122;BME280;35529;44.342;25.944;2022-11-18T12:55:55;99350.19;;;15.43;100.00
49122;BME280;35529;44.342;25.944;2022-11-18T12:58:23;99345.16;;;15.47;100.00
49122;BME280;35529;44.342;25.944;2022-11-18T13:00:49;99348.44;;;15.54;100.00
49122;BME280;35529;44.342;25.944;2022-11-18T13:03:25;99332.09;;;15.55;100.00
49122;BME280;35529;44.342;25.944;2022-11-18T13:05:57;99348.44;;;15.59;100.00
49122;BME280;35529;44.342;25.944;2022-11-18T13:08:24;99343.38;;;15.63;100.00
49122;BME280;35529;44.342;25.944;2022-11-18T13:10:52;99333.47;;;15.58;100.00
49122;BME280;35529;44.342;25.944;2022-11-18T13:13:39;99325.06;;;15.44;100.00
49122;BME280;35529;44.342;25.944;2022-11-18T13:16:16;99336.50;;;15.34;100.00
49122;BME280;35529;44.342;25.944;2022-11-18T13:19:01;99338.28;;;15.23;100.00
49122;BME280;35529;44.342;25.944;2022-11-18T13:21:27;99336.84;;;15.11;100.00
49122;BME280;35529;44.342;25.944;2022-11-18T13:24:13;99335.41;;;14.98;100.00
49122;BME280;35529;44.342;25.944;2022-11-18T13:26:40;99337.19;;;14.87;100.00
49122;BME280;35529;44.342;25.944;2022-11-18T13:31:54;99329.91;;;14.82;100.00
49122;BME280;35529;44.342;25.944;2022-11-18T13:34:24;99340.66;;;14.87;100.00
49122;BME280;35529;44.342;25.944;2022-11-18T13:36:51;99341.19;;;14.89;100.00
49122;BME280;35529;44.342;25.944;2022-11-18T13:39:22;99351.41;;;14.93;100.00
49122;BME280;35529;44.342;25.944;2022-11-18T13:41:58;99343.63;;;14.91;100.00
49122;BME280;35529;44.342;25.944;2022-11-18T13:44:25;99330.16;;;14.81;100.00
49122;BME280;35529;44.342;25.944;2022-11-18T13:46:58;99326.78;;;14.63;100.00
49122;BME280;35529;44.342;25.944;2022-11-18T13:49:42;99326.31;;;14.49;100.00
49122;BME280;35529;44.342;25.944;2022-11-18T13:52:13;99317.38;;;14.33;100.00
49122;BME280;35529;44.342;25.944;2022-11-18T13:54:43;99312.88;;;14.17;100.00
49122;BME280;35529;44.342;25.944;2022-11-18T13:57:14;99324.56;;;14.11;100.00
49122;BME280;35529;44.342;25.944;2022-11-18T13:59:42;99340.53;;;14.05;100.00
49122;BME280;35529;44.342;25.944;2022-11-18T14:02:10;99330.19;;;13.92;100.00
49122;BME280;35529;44.342;25.944;2022-11-18T14:04:37;99321.56;;;13.85;100.00
49122;BME280;35529;44.342;25.944;2022-11-18T14:07:14;99314.22;;;13.75;100.00
49122;BME280;35529;44.342;25.944;2022-11-18T14:09:50;99311.97;;;13.67;100.00
49122;BME280;35529;44.342;25.944;2022-11-18T14:14:43;99306.91;;;13.48;100.00
49122;BME280;35529;44.342;25.944;2022-11-18T14:17:17;99300.63;;;13.37;100.00
49122;BME280;35529;44.342;25.944;2022-11-18T14:19:44;99298.34;;;13.29;100.00
49122;BME280;35529;44.342;25.944;2022-11-18T14:22:11;99299.22;;;13.18;100.00
49122;BME280;35529;44.342;25.944;2022-11-18T14:24:38;99282.25;;;13.07;100.00
49122;BME280;35529;44.342;25.944;2022-11-18T14:29:50;99295.91;;;12.94;100.00
49122;BME280;35529;44.342;25.944;2022-11-18T14:32:16;99294.44;;;12.86;100.00
49122;BME280;35529;44.342;25.944;2022-11-18T14:34:42;99293.00;;;12.78;100.00